createdAt,value
2023-02-11T00:00:09.240Z,17.50
2023-02-11T00:05:02.633Z,18.73
2023-02-11T00:09:55.198Z,17.30
2023-02-11T00:14:49.207Z,17.67
2023-02-11T00:19:41.708Z,16.53
2023-02-11T00:24:34.267Z,17.67
2023-02-11T00:29:26.811Z,17.80
2023-02-11T00:34:20.732Z,17.70
2023-02-11T00:39:13.457Z,19.23
2023-02-11T00:44:06.187Z,20.20
2023-02-11T00:48:58.798Z,19.87
2023-02-11T00:53:52.721Z,20.53
2023-02-11T00:58:45.306Z,21.53
2023-02-11T01:03:37.885Z,22.00
2023-02-11T01:08:30.590Z,19.30
2023-02-11T01:13:24.544Z,17.33
2023-02-11T01:18:19.954Z,17.03
2023-02-11T01:23:14.789Z,18.83
2023-02-11T01:28:13.463Z,18.40
2023-02-11T01:33:07.380Z,18.00
2023-02-11T01:37:59.955Z,19.27
2023-02-11T01:42:52.498Z,17.30
2023-02-11T01:47:45.498Z,18.70
2023-02-11T01:52:42.745Z,18.60
2023-02-11T01:57:36.346Z,16.80
2023-02-11T02:02:35.251Z,15.50
2023-02-11T02:07:33.328Z,16.00
2023-02-11T02:12:27.719Z,15.90
2023-02-11T02:17:27.432Z,15.43
2023-02-11T02:22:36.536Z,13.30
2023-02-11T02:27:47.746Z,13.57
2023-02-11T02:32:44.263Z,14.20
2023-02-11T02:37:39.557Z,13.47
2023-02-11T02:42:32.616Z,15.20
2023-02-11T02:47:26.496Z,15.10
2023-02-11T02:52:25.629Z,17.30
2023-02-11T02:57:25.294Z,16.80
2023-02-11T03:02:20.646Z,16.30
2023-02-11T03:07:19.420Z,15.20
2023-02-11T03:12:14.949Z,15.60
2023-02-11T03:17:09.926Z,14.40
2023-02-11T03:22:04.016Z,15.90
2023-02-11T03:27:01.424Z,16.27
2023-02-11T03:31:59.889Z,12.40
2023-02-11T03:36:54.619Z,13.10
2023-02-11T03:41:48.750Z,12.80
2023-02-11T03:46:44.015Z,13.00
2023-02-11T03:51:39.351Z,12.40
2023-02-11T03:56:38.414Z,10.10
2023-02-11T04:01:31.798Z,10.90
2023-02-11T04:06:27.893Z,10.83
2023-02-11T04:11:22.032Z,11.23
2023-02-11T04:16:15.025Z,12.13
2023-02-11T04:21:10.574Z,13.17
2023-02-11T04:26:03.578Z,12.23
2023-02-11T04:30:57.619Z,12.70
2023-02-11T04:35:50.757Z,12.10
2023-02-11T04:40:43.971Z,12.83
2023-02-11T04:45:36.810Z,12.60
2023-02-11T04:50:31.067Z,13.90
2023-02-11T04:55:23.992Z,13.10
2023-02-11T05:00:17.695Z,14.40
2023-02-11T05:05:10.522Z,13.60
2023-02-11T05:10:07.674Z,11.50
2023-02-11T05:15:00.633Z,11.67
2023-02-11T05:19:53.550Z,12.20
2023-02-11T05:24:46.360Z,13.50
2023-02-11T05:29:40.561Z,14.50
2023-02-11T05:34:33.350Z,15.67
2023-02-11T05:39:28.470Z,19.40
2023-02-11T05:44:21.195Z,19.23
2023-02-11T05:49:15.543Z,24.23
2023-02-11T05:54:11.093Z,23.50
2023-02-11T05:59:03.901Z,23.13
2023-02-11T06:03:56.781Z,22.47
2023-02-11T06:08:50.973Z,21.80
2023-02-11T06:13:44.086Z,23.00
2023-02-11T06:18:36.921Z,22.43
2023-02-11T06:23:30.573Z,21.47
2023-02-11T06:28:24.953Z,23.20
2023-02-11T06:33:17.883Z,24.47
2023-02-11T06:38:10.828Z,26.80
2023-02-11T06:43:05.156Z,25.13
2023-02-11T06:47:59.233Z,25.57
2023-02-11T06:52:52.529Z,27.70
2023-02-11T06:57:45.793Z,27.57
2023-02-11T07:02:38.771Z,25.30
2023-02-11T07:07:34.197Z,23.37
2023-02-11T07:12:27.192Z,23.23
2023-02-11T07:17:19.874Z,21.90
2023-02-11T07:22:12.738Z,22.30
2023-02-11T07:27:10.026Z,28.33
2023-02-11T07:32:05.548Z,30.30
2023-02-11T07:37:01.966Z,26.60
2023-02-11T07:41:55.335Z,25.37
2023-02-11T07:46:50.049Z,25.17
2023-02-11T07:51:42.715Z,25.60
2023-02-11T07:56:35.437Z,24.43
2023-02-11T08:01:28.644Z,24.10
2023-02-11T08:06:23.824Z,23.20
2023-02-11T08:11:17.682Z,21.80
2023-02-11T08:16:10.451Z,22.00
2023-02-11T08:21:05.436Z,22.00
2023-02-11T08:26:03.073Z,23.10
2023-02-11T08:30:55.634Z,23.77
2023-02-11T08:35:48.213Z,26.37
2023-02-11T08:40:40.808Z,27.20
2023-02-11T08:45:34.817Z,45.20
2023-02-11T08:50:28.402Z,39.60
2023-02-11T08:55:20.956Z,28.50
2023-02-11T09:00:14.173Z,26.00
2023-02-11T09:05:08.691Z,25.60
2023-02-11T09:10:01.954Z,27.57
2023-02-11T09:14:54.432Z,28.77
2023-02-11T09:19:47.022Z,28.20
2023-02-11T09:24:40.929Z,28.13
2023-02-11T09:29:33.534Z,34.93
2023-02-11T09:34:26.076Z,45.30
2023-02-11T09:39:20.032Z,30.37
2023-02-11T09:44:19.404Z,24.07
2023-02-11T09:49:16.295Z,23.60
2023-02-11T09:54:12.934Z,24.50
2023-02-11T09:59:05.663Z,25.00
2023-02-11T10:04:03.803Z,22.30
2023-02-11T10:09:02.654Z,21.60
2023-02-11T10:14:01.341Z,28.07
2023-02-11T10:19:00.714Z,24.33
2023-02-11T10:23:57.856Z,28.67
2023-02-11T10:28:52.722Z,29.30
2023-02-11T10:33:47.490Z,30.67
2023-02-11T10:38:40.240Z,30.70
2023-02-11T10:43:34.419Z,33.73
2023-02-11T10:48:40.724Z,32.70
2023-02-11T10:53:33.963Z,34.00
2023-02-11T10:58:27.527Z,37.50
2023-02-11T11:03:22.673Z,38.80
2023-02-11T11:08:15.255Z,38.27
2023-02-11T11:13:19.226Z,35.33
2023-02-11T11:18:22.087Z,34.30
2023-02-11T11:23:19.564Z,33.00
2023-02-11T11:28:20.175Z,34.60
2023-02-11T11:33:18.096Z,31.73
2023-02-11T11:38:14.123Z,30.83
2023-02-11T11:43:20.257Z,31.57
2023-02-11T11:48:20.342Z,29.13
2023-02-11T11:53:14.896Z,27.97
2023-02-11T11:58:11.624Z,27.93
2023-02-11T12:03:24.696Z,26.43
2023-02-11T12:08:21.759Z,27.47
2023-02-11T12:13:22.281Z,24.23
2023-02-11T12:18:18.688Z,25.07
2023-02-11T12:23:22.673Z,23.70
2023-02-11T12:28:23.003Z,18.20
2023-02-11T12:33:21.238Z,16.30
2023-02-11T12:38:27.163Z,16.20
2023-02-11T12:43:24.809Z,14.93
2023-02-11T12:48:26.863Z,15.60
2023-02-11T12:53:30.739Z,15.70
2023-02-11T12:58:35.613Z,16.37
2023-02-11T13:03:37.989Z,16.90
2023-02-11T13:08:32.974Z,15.80
2023-02-11T13:13:30.536Z,15.40
2023-02-11T13:18:41.424Z,16.67
2023-02-11T13:23:38.409Z,16.00
2023-02-11T13:28:40.199Z,16.30
2023-02-11T13:33:34.047Z,16.53
2023-02-11T13:38:27.850Z,16.10
2023-02-11T13:43:22.083Z,16.23
2023-02-11T13:48:18.879Z,17.00
2023-02-11T13:53:15.942Z,17.63
2023-02-11T13:58:19.764Z,17.17
2023-02-11T14:03:44.835Z,20.43
2023-02-11T14:08:59.774Z,20.67
2023-02-11T14:14:19.891Z,21.00
2023-02-11T14:19:12.559Z,20.83
2023-02-11T14:24:29.349Z,22.27
2023-02-11T14:29:27.216Z,20.63
2023-02-11T14:34:30.903Z,19.77
2023-02-11T14:44:48.180Z,30.53
2023-02-11T14:49:46.055Z,20.30
2023-02-11T14:54:43.305Z,19.60
2023-02-11T14:59:41.919Z,20.63
2023-02-11T15:04:40.659Z,20.40
2023-02-11T15:09:34.774Z,20.37
2023-02-11T15:14:28.397Z,26.17
2023-02-11T15:19:24.600Z,22.80
2023-02-11T15:24:55.185Z,21.13
2023-02-11T15:30:32.418Z,20.70
2023-02-11T15:35:41.232Z,20.93
2023-02-11T15:40:42.363Z,22.23
2023-02-11T15:45:39.470Z,21.40
2023-02-11T15:50:35.115Z,22.20
2023-02-11T15:55:29.858Z,23.47
2023-02-11T16:00:24.528Z,36.03
2023-02-11T16:05:26.740Z,34.47
2023-02-11T16:10:21.019Z,26.27
2023-02-11T16:15:31.715Z,23.93
2023-02-11T16:20:24.461Z,24.07
2023-02-11T16:25:19.105Z,24.03
2023-02-11T16:30:23.780Z,22.50
2023-02-11T16:35:17.951Z,21.10
2023-02-11T16:40:11.879Z,21.27
2023-02-11T16:45:04.883Z,21.90
2023-02-11T16:49:57.825Z,24.43
2023-02-11T16:54:51.722Z,28.83
2023-02-11T16:59:44.585Z,25.87
2023-02-11T17:04:37.303Z,80.13
2023-02-11T17:09:31.229Z,20.50
2023-02-11T17:14:25.639Z,21.43
2023-02-11T17:19:22.471Z,25.80
2023-02-11T17:24:15.301Z,21.80
2023-02-11T17:29:08.232Z,22.30
2023-02-11T17:34:02.223Z,32.87
2023-02-11T17:38:55.930Z,34.37
2023-02-11T17:43:48.451Z,27.07
2023-02-11T17:48:41.024Z,24.77
2023-02-11T17:53:35.016Z,25.37
2023-02-11T17:58:27.628Z,24.80
2023-02-11T18:03:20.268Z,26.47
2023-02-11T18:08:12.850Z,25.07
2023-02-11T18:13:06.834Z,25.50
2023-02-11T18:17:59.508Z,22.33
2023-02-11T18:22:52.195Z,22.97
2023-02-11T18:27:44.877Z,21.80
2023-02-11T18:32:38.827Z,31.20
2023-02-11T18:37:31.664Z,28.70
2023-02-11T18:42:24.270Z,23.27
2023-02-11T18:47:16.907Z,22.80
2023-02-11T18:52:10.904Z,23.63
2023-02-11T18:57:03.662Z,22.67
2023-02-11T19:01:56.171Z,19.37
2023-02-11T19:06:49.471Z,16.77
2023-02-11T19:11:50.210Z,24.00
2023-02-11T19:16:43.943Z,74.07
2023-02-11T19:21:37.107Z,79.10
2023-02-11T19:26:30.484Z,23.37
2023-02-11T19:31:24.550Z,35.47
2023-02-11T19:36:18.503Z,35.80
2023-02-11T19:41:11.288Z,46.03
2023-02-11T19:46:04.320Z,21.43
2023-02-11T19:50:58.845Z,22.20
2023-02-11T19:55:51.866Z,39.60
2023-02-11T20:00:44.982Z,25.77
2023-02-11T20:05:40.204Z,33.27
2023-02-11T20:10:35.319Z,28.87
2023-02-11T20:15:28.175Z,45.73
2023-02-11T20:20:21.086Z,38.63
2023-02-11T20:25:13.838Z,20.23
2023-02-11T20:30:09.177Z,30.43
2023-02-11T20:35:01.942Z,21.40
2023-02-11T20:39:54.879Z,22.03
2023-02-11T20:44:48.182Z,25.27
2023-02-11T20:49:42.589Z,21.50
2023-02-11T20:54:38.190Z,18.87
2023-02-11T20:59:31.128Z,22.30
2023-02-11T21:04:24.884Z,23.00
2023-02-11T21:09:21.091Z,22.07
2023-02-11T21:14:14.671Z,22.30
2023-02-11T21:19:08.078Z,20.00
2023-02-11T21:24:00.965Z,18.90
2023-02-11T21:28:56.173Z,19.90
2023-02-11T21:33:58.192Z,22.33
2023-02-11T21:38:53.673Z,25.80
2023-02-11T21:43:46.645Z,25.93
2023-02-11T21:48:40.922Z,26.03
2023-02-11T21:53:34.447Z,22.20
2023-02-11T21:58:29.934Z,19.20
2023-02-11T22:03:22.716Z,22.07
2023-02-11T22:08:20.038Z,24.10
2023-02-11T22:13:13.099Z,24.33
2023-02-11T22:18:06.057Z,26.30
2023-02-11T22:22:59.484Z,24.10
2023-02-11T22:27:53.631Z,22.27
2023-02-11T22:32:47.417Z,18.90
2023-02-11T22:37:40.625Z,21.67
2023-02-11T22:42:33.623Z,23.40
2023-02-11T22:47:28.320Z,27.47
2023-02-11T22:52:22.390Z,23.53
2023-02-11T22:57:15.151Z,19.43
2023-02-11T23:02:08.070Z,18.50
2023-02-11T23:07:02.235Z,20.90
2023-02-11T23:11:55.654Z,22.83
2023-02-11T23:16:50.688Z,24.30
2023-02-11T23:21:43.921Z,25.87
2023-02-11T23:26:38.686Z,28.23
2023-02-11T23:31:33.939Z,28.33
2023-02-11T23:36:26.939Z,23.27
2023-02-11T23:41:20.942Z,26.67
2023-02-11T23:46:15.265Z,23.87
2023-02-11T23:51:09.736Z,24.80
2023-02-11T23:56:07.040Z,20.43
